Time;durP1;ratioP1;P1;durP2;ratioP2;P2;SDS_P1;SDS_P2;PMS_P1;PMS_P2;Temp;Humidity;BMP_temperature;BMP_pressure;BME280_temperature;BME280_humidity;BME280_pressure;Samples;Min_cycle;Max_cycle;Signal;HPM_P1;HPM_P2
2023/10/04 00:00:54;;;;;;;3.22;1.42;;;14.90;99.90;;;;;;5019027;28;20759;-73
2023/10/04 00:03:19;;;;;;;3.28;1.05;;;14.80;99.90;;;;;;5014935;28;20195;-75
2023/10/04 00:05:45;;;;;;;5.50;1.35;;;14.80;99.90;;;;;;5027893;28;20211;-75
2023/10/04 00:08:11;;;;;;;6.45;2.15;;;14.70;99.90;;;;;;5036730;28;20269;-75
2023/10/04 00:10:36;;;;;;;4.63;1.98;;;14.70;99.90;;;;;;5032068;28;20299;-74
2023/10/04 00:13:03;;;;;;;7.05;1.42;;;14.60;99.90;;;;;;5033422;28;20258;-75
2023/10/04 00:15:31;;;;;;;3.78;1.27;;;14.60;99.90;;;;;;5023189;28;20211;-75
2023/10/04 00:17:57;;;;;;;6.97;1.50;;;14.60;99.90;;;;;;5040629;28;20660;-75
2023/10/04 00:20:31;;;;;;;4.15;1.50;;;14.50;99.90;;;;;;5023622;28;20219;-75
2023/10/04 00:22:56;;;;;;;9.45;1.70;;;14.50;99.90;;;;;;5038314;28;20220;-76
2023/10/04 00:25:23;;;;;;;2.85;1.20;;;14.60;99.90;;;;;;5040536;28;20223;-76
2023/10/04 00:27:56;;;;;;;2.17;0.88;;;14.60;99.90;;;;;;5040083;28;20207;-75
2023/10/04 00:30:29;;;;;;;6.63;1.80;;;14.70;99.90;;;;;;5025174;28;20182;-76
2023/10/04 00:32:56;;;;;;;5.57;1.52;;;14.70;99.90;;;;;;5037774;28;20561;-75
2023/10/04 00:35:22;;;;;;;3.50;1.90;;;14.70;99.90;;;;;;5041204;28;20619;-76
2023/10/04 00:38:00;;;;;;;3.80;1.30;;;14.60;99.90;;;;;;5039276;28;20235;-75
2023/10/04 00:40:28;;;;;;;5.88;1.00;;;14.60;99.90;;;;;;5037625;28;20200;-75
2023/10/04 00:42:55;;;;;;;5.47;1.65;;;14.50;99.90;;;;;;5018657;28;20315;-74
2023/10/04 00:45:22;;;;;;;3.08;0.95;;;14.40;99.90;;;;;;5063975;28;20568;-76
2023/10/04 00:47:51;;;;;;;2.13;1.38;;;14.50;99.90;;;;;;5060404;28;20168;-75
2023/10/04 00:50:22;;;;;;;3.30;1.40;;;14.40;99.90;;;;;;5056694;28;20759;-75
2023/10/04 00:52:52;;;;;;;4.15;1.20;;;14.40;99.90;;;;;;5049573;28;20215;-74
2023/10/04 00:55:19;;;;;;;5.78;1.85;;;14.30;99.90;;;;;;5059843;28;20291;-77
2023/10/04 00:57:51;;;;;;;5.00;1.40;;;14.40;99.90;;;;;;5047143;28;20285;-76
2023/10/04 01:00:17;;;;;;;3.53;1.40;;;14.30;99.90;;;;;;5057525;28;20263;-75
2023/10/04 01:02:44;;;;;;;2.50;1.20;;;14.30;99.90;;;;;;5048757;28;20875;-76
2023/10/04 01:05:11;;;;;;;1.33;0.90;;;14.30;99.90;;;;;;5054864;28;20219;-76
2023/10/04 01:07:41;;;;;;;4.07;1.50;;;14.30;99.90;;;;;;5033765;28;20203;-74
2023/10/04 01:10:14;;;;;;;3.70;1.20;;;14.20;99.90;;;;;;5056509;28;20257;-75
2023/10/04 01:12:40;;;;;;;4.32;1.17;;;14.20;99.90;;;;;;5058386;28;20738;-75
2023/10/04 01:15:25;;;;;;;7.35;1.30;;;14.20;99.90;;;;;;5041891;28;20172;-74
2023/10/04 01:18:02;;;;;;;2.47;1.48;;;14.20;99.90;;;;;;5014128;28;20215;-74
2023/10/04 01:20:30;;;;;;;2.53;1.20;;;14.10;99.90;;;;;;5021156;28;20281;-74
2023/10/04 01:23:04;;;;;;;3.72;1.20;;;14.10;99.90;;;;;;5042098;28;20207;-73
2023/10/04 01:25:31;;;;;;;5.72;1.48;;;14.10;99.90;;;;;;5057881;28;20305;-75
2023/10/04 01:27:59;;;;;;;6.90;1.73;;;14.10;99.90;;;;;;5045594;28;20219;-74
2023/10/04 01:30:25;;;;;;;3.50;1.45;;;14.10;99.90;;;;;;5056008;28;20183;-74
2023/10/04 01:32:51;;;;;;;3.15;1.23;;;14.00;99.90;;;;;;5057605;28;20178;-73
2023/10/04 01:35:19;;;;;;;4.65;1.67;;;14.10;99.90;;;;;;5047424;28;20208;-75
2023/10/04 01:37:45;;;;;;;3.45;1.13;;;14.10;99.90;;;;;;5055751;28;20201;-74
2023/10/04 01:40:14;;;;;;;6.05;1.27;;;14.10;99.90;;;;;;5055652;28;20856;-75
2023/10/04 01:42:40;;;;;;;5.07;1.85;;;14.10;99.90;;;;;;5048538;28;20208;-75
2023/10/04 01:45:15;;;;;;;5.13;1.52;;;14.00;99.90;;;;;;5051720;28;20230;-76
2023/10/04 01:47:40;;;;;;;4.95;1.27;;;14.00;99.90;;;;;;5057827;28;20195;-74
2023/10/04 01:50:08;;;;;;;2.40;1.50;;;14.00;99.90;;;;;;5057003;28;20217;-75
2023/10/04 01:52:36;;;;;;;6.07;1.10;;;14.00;99.90;;;;;;5059391;28;20199;-76
2023/10/04 01:55:05;;;;;;;6.30;2.03;;;13.90;99.90;;;;;;5056850;28;20235;-74
2023/10/04 01:57:32;;;;;;;2.42;1.20;;;13.90;99.90;;;;;;5043447;28;20645;-75
2023/10/04 01:59:58;;;;;;;3.03;1.27;;;14.00;99.90;;;;;;5054046;28;20207;-74
2023/10/04 02:02:24;;;;;;;9.77;1.40;;;13.90;99.90;;;;;;5051134;28;20549;-75
2023/10/04 02:04:53;;;;;;;4.18;1.90;;;13.90;99.90;;;;;;5033280;28;20219;-75
2023/10/04 02:07:21;;;;;;;2.70;1.23;;;13.90;99.90;;;;;;5018508;28;20197;-75
2023/10/04 02:09:48;;;;;;;4.60;1.70;;;13.90;99.90;;;;;;5034487;28;20219;-75
2023/10/04 02:12:13;;;;;;;5.05;1.50;;;13.90;99.90;;;;;;5032263;28;20189;-75
2023/10/04 02:14:40;;;;;;;2.70;1.50;;;13.90;99.90;;;;;;5020729;28;20211;-75
2023/10/04 02:17:08;;;;;;;5.40;1.45;;;13.80;99.90;;;;;;5019328;28;20222;-75
2023/10/04 02:19:34;;;;;;;3.95;1.55;;;13.80;99.90;;;;;;5019132;28;20220;-75
2023/10/04 02:22:00;;;;;;;7.38;2.10;;;13.80;99.90;;;;;;5021749;28;20216;-75
2023/10/04 02:24:26;;;;;;;7.05;1.52;;;13.90;99.90;;;;;;5040941;28;20202;-75
2023/10/04 02:26:52;;;;;;;4.25;1.35;;;13.90;99.90;;;;;;5058498;28;20172;-76
2023/10/04 02:29:18;;;;;;;2.58;1.42;;;14.00;99.90;;;;;;5056685;28;20329;-75
2023/10/04 02:31:44;;;;;;;3.33;1.27;;;13.90;99.90;;;;;;5059209;28;20289;-75
2023/10/04 02:34:11;;;;;;;7.45;2.20;;;13.90;99.90;;;;;;5035932;28;20220;-75
2023/10/04 02:36:37;;;;;;;4.63;1.70;;;14.00;99.90;;;;;;5032600;28;20320;-75
2023/10/04 02:39:10;;;;;;;7.82;2.03;;;14.00;99.90;;;;;;5040997;28;20632;-75
2023/10/04 02:41:36;;;;;;;11.10;1.90;;;14.00;99.90;;;;;;5049755;28;20204;-75
2023/10/04 02:44:02;;;;;;;3.92;1.67;;;14.00;99.90;;;;;;5036340;28;20726;-74
2023/10/04 02:46:28;;;;;;;8.27;1.67;;;13.90;99.90;;;;;;5040412;28;20260;-75
2023/10/04 02:48:54;;;;;;;4.38;1.88;;;14.00;99.90;;;;;;5057557;28;20755;-75
2023/10/04 02:51:20;;;;;;;3.35;1.58;;;13.90;99.90;;;;;;5054454;28;20189;-74
2023/10/04 02:53:46;;;;;;;7.80;2.25;;;13.80;99.90;;;;;;5041632;28;20171;-75
2023/10/04 02:56:11;;;;;;;4.13;1.95;;;13.80;99.90;;;;;;5032844;28;20208;-75
2023/10/04 02:58:37;;;;;;;6.45;2.10;;;13.80;99.90;;;;;;5059256;28;20692;-75
2023/10/04 03:01:03;;;;;;;3.53;1.73;;;13.70;99.90;;;;;;5058629;28;20727;-75
2023/10/04 03:03:30;;;;;;;3.35;1.50;;;13.80;99.90;;;;;;5058216;28;20330;-75
2023/10/04 03:05:57;;;;;;;5.55;1.73;;;13.80;99.90;;;;;;5040984;28;20225;-74
2023/10/04 03:08:23;;;;;;;5.13;2.38;;;13.80;99.90;;;;;;5027877;28;20733;-75
2023/10/04 03:10:50;;;;;;;4.72;1.88;;;13.70;99.90;;;;;;5022860;28;20203;-75
2023/10/04 03:13:22;;;;;;;5.65;2.00;;;13.70;99.90;;;;;;5041285;28;20239;-75
2023/10/04 03:15:54;;;;;;;8.20;2.40;;;13.70;99.90;;;;;;5035529;28;20208;-75
2023/10/04 03:18:21;;;;;;;2.95;1.52;;;13.70;99.90;;;;;;5029900;28;20196;-75
2023/10/04 03:20:56;;;;;;;5.68;2.13;;;13.70;99.90;;;;;;5035670;28;20172;-75
2023/10/04 03:23:30;;;;;;;6.55;2.35;;;13.60;99.90;;;;;;5035331;28;20208;-75
2023/10/04 03:26:00;;;;;;;6.95;2.60;;;13.60;99.90;;;;;;5037939;28;20714;-75
2023/10/04 03:28:26;;;;;;;5.00;2.30;;;13.60;99.90;;;;;;5040680;28;20266;-75
2023/10/04 03:30:56;;;;;;;8.48;2.90;;;13.60;99.90;;;;;;5033982;28;20224;-76
2023/10/04 03:33:22;;;;;;;3.60;2.17;;;13.60;99.90;;;;;;5039004;28;20208;-75
2023/10/04 03:35:48;;;;;;;5.53;2.13;;;13.60;99.90;;;;;;5039905;28;20186;-75
2023/10/04 03:38:15;;;;;;;7.82;2.53;;;13.60;99.90;;;;;;5022254;28;20588;-75
2023/10/04 03:40:41;;;;;;;6.05;2.40;;;13.60;99.90;;;;;;5041830;28;20755;-75
2023/10/04 03:43:08;;;;;;;6.68;2.17;;;13.60;99.90;;;;;;5025000;28;20208;-75
2023/10/04 03:45:40;;;;;;;4.97;2.67;;;13.60;99.90;;;;;;5036901;28;20312;-76
2023/10/04 03:48:13;;;;;;;5.00;2.10;;;13.60;99.90;;;;;;5015311;28;20209;-75
2023/10/04 03:50:40;;;;;;;5.15;1.83;;;13.60;99.90;;;;;;5040208;28;20872;-75
2023/10/04 03:53:07;;;;;;;2.38;2.00;;;13.60;99.90;;;;;;5051449;28;20207;-74
2023/10/04 03:55:33;;;;;;;4.77;2.43;;;13.60;99.90;;;;;;5046401;28;20410;-75
2023/10/04 03:57:58;;;;;;;4.30;2.53;;;13.60;99.90;;;;;;5052863;28;20206;-75
2023/10/04 04:00:24;;;;;;;5.78;2.58;;;13.60;99.90;;;;;;5048383;28;20204;-75
2023/10/04 04:02:51;;;;;;;5.47;2.33;;;13.60;99.90;;;;;;5055197;28;20756;-75
2023/10/04 04:05:21;;;;;;;5.78;2.65;;;13.60;99.90;;;;;;5051674;28;20216;-75
2023/10/04 04:07:47;;;;;;;7.43;2.75;;;13.60;99.90;;;;;;5032178;28;20208;-75
2023/10/04 04:10:14;;;;;;;9.20;2.90;;;13.60;99.90;;;;;;5051660;28;20211;-75
2023/10/04 04:12:40;;;;;;;5.40;2.70;;;13.60;99.90;;;;;;5055880;28;20214;-75
2023/10/04 04:15:10;;;;;;;4.95;2.17;;;13.60;99.90;;;;;;5052960;28;20175;-74
2023/10/04 04:17:42;;;;;;;4.38;1.90;;;13.60;99.90;;;;;;5061980;28;20587;-74
2023/10/04 04:20:19;;;;;;;4.70;2.40;;;13.60;99.90;;;;;;5057836;28;20219;-74
2023/10/04 04:22:51;;;;;;;4.47;1.92;;;13.60;99.90;;;;;;5058546;28;20202;-76
2023/10/04 04:25:19;;;;;;;3.35;2.13;;;13.50;99.90;;;;;;5059920;28;20281;-75
2023/10/04 04:27:50;;;;;;;5.25;2.35;;;13.50;99.90;;;;;;5062007;28;20302;-75
2023/10/04 04:30:19;;;;;;;7.00;2.13;;;13.50;99.90;;;;;;5049922;28;20217;-75
2023/10/04 04:32:47;;;;;;;5.53;2.33;;;13.50;99.90;;;;;;5059758;28;20235;-75
2023/10/04 04:35:23;;;;;;;3.97;2.40;;;13.50;99.90;;;;;;5046289;28;20694;-74
2023/10/04 04:37:54;;;;;;;5.55;2.30;;;13.60;99.90;;;;;;5051778;28;20207;-75
2023/10/04 04:40:25;;;;;;;4.32;2.60;;;13.50;99.90;;;;;;5056936;28;20211;-75
2023/10/04 04:42:51;;;;;;;5.38;1.83;;;13.50;99.90;;;;;;5060934;28;20732;-72
2023/10/04 04:45:19;;;;;;;3.95;2.08;;;13.50;99.90;;;;;;5035510;28;20233;-75
2023/10/04 04:47:44;;;;;;;4.78;2.13;;;13.50;99.90;;;;;;5040716;28;20211;-75
2023/10/04 04:50:11;;;;;;;6.85;2.08;;;13.50;99.90;;;;;;5041645;28;20222;-74
2023/10/04 04:52:36;;;;;;;5.32;2.30;;;13.50;99.90;;;;;;5059973;28;20203;-76
2023/10/04 04:55:04;;;;;;;6.57;2.90;;;13.50;99.90;;;;;;5060257;28;20294;-75
2023/10/04 04:57:31;;;;;;;4.03;2.10;;;13.50;99.90;;;;;;5059708;28;20168;-75
2023/10/04 04:59:57;;;;;;;4.03;1.77;;;13.40;99.90;;;;;;5042628;28;20203;-74
2023/10/04 05:02:30;;;;;;;8.05;2.17;;;13.40;99.90;;;;;;5050785;28;20293;-75
2023/10/04 05:04:57;;;;;;;6.07;1.98;;;13.40;99.90;;;;;;5043036;28;20224;-75
2023/10/04 05:07:27;;;;;;;10.07;2.30;;;13.40;99.90;;;;;;5044853;28;20275;-75
2023/10/04 05:09:55;;;;;;;3.95;2.03;;;13.40;99.90;;;;;;5039359;28;20224;-73
2023/10/04 05:12:20;;;;;;;3.20;2.00;;;13.40;99.90;;;;;;5021358;28;20186;-74
2023/10/04 05:14:46;;;;;;;3.17;1.98;;;13.40;99.90;;;;;;5059089;28;20555;-75
2023/10/04 05:17:12;;;;;;;5.22;1.80;;;13.50;99.90;;;;;;5059634;28;20241;-75
2023/10/04 05:19:38;;;;;;;5.18;2.03;;;13.50;99.90;;;;;;5059274;28;20211;-76
2023/10/04 05:22:05;;;;;;;13.65;2.58;;;13.50;99.90;;;;;;5061092;28;20264;-76
2023/10/04 05:24:31;;;;;;;5.65;2.47;;;13.60;99.90;;;;;;5058480;28;20199;-75
2023/10/04 05:26:57;;;;;;;3.13;1.70;;;13.50;99.90;;;;;;5062703;28;20171;-75
2023/10/04 05:29:22;;;;;;;6.60;1.65;;;13.60;99.90;;;;;;5057963;28;20218;-75
2023/10/04 05:31:48;;;;;;;10.20;1.90;;;13.70;99.90;;;;;;5051279;28;20245;-76
2023/10/04 05:34:14;;;;;;;8.82;1.92;;;13.80;99.90;;;;;;5040597;28;20215;-76
2023/10/04 05:36:40;;;;;;;3.72;1.42;;;13.80;99.90;;;;;;5059813;28;20288;-76
2023/10/04 05:39:08;;;;;;;5.88;1.95;;;13.90;99.90;;;;;;5057946;28;20203;-76
2023/10/04 05:41:35;;;;;;;4.75;1.90;;;14.00;99.90;;;;;;5059932;28;20256;-76
2023/10/04 05:44:01;;;;;;;6.55;1.75;;;14.10;99.90;;;;;;5057188;28;20307;-75
2023/10/04 05:46:26;;;;;;;9.85;1.95;;;14.20;99.90;;;;;;5046663;28;20279;-76
2023/10/04 05:48:52;;;;;;;3.53;1.80;;;14.20;99.90;;;;;;5055926;28;20223;-75
2023/10/04 05:51:20;;;;;;;4.60;2.13;;;14.30;99.90;;;;;;5058614;28;20178;-75
2023/10/04 05:53:51;;;;;;;2.78;1.58;;;14.40;99.90;;;;;;5058141;28;20235;-75
2023/10/04 05:56:17;;;;;;;3.55;1.45;;;14.60;99.90;;;;;;5058286;28;20262;-74
2023/10/04 05:58:43;;;;;;;6.25;2.00;;;15.30;99.90;;;;;;5058827;28;20556;-75
2023/10/04 06:01:14;;;;;;;3.90;1.50;;;15.80;99.90;;;;;;5042100;28;20213;-75
2023/10/04 06:03:40;;;;;;;5.45;1.73;;;15.80;99.90;;;;;;5041684;28;20281;-75
2023/10/04 06:06:06;;;;;;;6.07;1.92;;;15.70;99.90;;;;;;5058715;28;20198;-73
2023/10/04 06:08:33;;;;;;;4.82;1.50;;;16.40;99.90;;;;;;5037355;28;20219;-75
2023/10/04 06:10:59;;;;;;;3.67;2.03;;;16.90;99.90;;;;;;5040335;28;20257;-75
2023/10/04 06:13:25;;;;;;;2.88;1.35;;;17.20;99.90;;;;;;5044774;28;20287;-75
2023/10/04 06:15:55;;;;;;;2.67;1.27;;;17.20;99.90;;;;;;5066068;28;20689;-75
2023/10/04 06:18:26;;;;;;;2.45;1.30;;;16.60;99.90;;;;;;5060593;28;20222;-75
2023/10/04 06:20:51;;;;;;;6.68;1.30;;;17.00;99.90;;;;;;5060801;28;20167;-76
2023/10/04 06:23:17;;;;;;;3.33;1.70;;;16.70;99.90;;;;;;5061716;28;20199;-74
2023/10/04 06:25:46;;;;;;;4.82;1.58;;;16.80;99.90;;;;;;5055575;28;20222;-75
2023/10/04 06:28:13;;;;;;;4.47;1.85;;;16.80;99.90;;;;;;5056374;28;20288;-75
2023/10/04 06:30:40;;;;;;;2.90;1.65;;;16.50;99.90;;;;;;5060149;28;20295;-75
2023/10/04 06:33:08;;;;;;;3.33;1.45;;;16.50;99.90;;;;;;5063132;28;20178;-74
2023/10/04 06:35:35;;;;;;;5.25;1.83;;;16.40;99.90;;;;;;5059477;28;20204;-76
2023/10/04 06:38:06;;;;;;;3.35;1.40;;;16.40;99.90;;;;;;5064052;28;20206;-75
2023/10/04 06:40:32;;;;;;;2.53;1.40;;;16.90;99.90;;;;;;5057312;28;20294;-75
2023/10/04 06:43:05;;;;;;;2.47;1.23;;;16.70;99.90;;;;;;5054909;28;20616;-75
2023/10/04 06:45:32;;;;;;;3.40;1.45;;;17.50;99.90;;;;;;5041286;28;20201;-75
2023/10/04 06:47:59;;;;;;;3.63;1.63;;;18.50;99.90;;;;;;5063015;28;20305;-74
2023/10/04 06:50:28;;;;;;;3.80;1.33;;;19.20;99.90;;;;;;5060101;28;20290;-75
2023/10/04 06:52:56;;;;;;;4.32;1.70;;;19.50;99.90;;;;;;5045235;28;20286;-73
2023/10/04 06:55:22;;;;;;;5.47;1.30;;;19.00;99.90;;;;;;5043203;28;20212;-75
2023/10/04 06:57:49;;;;;;;2.30;1.05;;;19.20;99.90;;;;;;5064554;28;20575;-75
2023/10/04 07:00:18;;;;;;;5.35;1.50;;;19.40;99.90;;;;;;5057316;28;20232;-75
2023/10/04 07:02:46;;;;;;;6.90;1.77;;;19.20;99.90;;;;;;5080701;28;20202;-75
2023/10/04 07:05:17;;;;;;;4.88;1.85;;;18.60;99.90;;;;;;5077540;28;20218;-75
2023/10/04 07:07:44;;;;;;;5.90;1.73;;;18.40;99.90;;;;;;5080777;28;20203;-75
2023/10/04 07:10:14;;;;;;;4.82;2.08;;;18.20;99.90;;;;;;5084388;28;20206;-74
2023/10/04 07:12:40;;;;;;;8.35;1.60;;;17.90;99.90;;;;;;5079852;28;20203;-74
2023/10/04 07:15:07;;;;;;;3.33;1.60;;;17.70;99.90;;;;;;5063928;28;20561;-74
2023/10/04 07:17:33;;;;;;;6.10;1.70;;;17.30;99.90;;;;;;5082490;28;20283;-75
2023/10/04 07:19:59;;;;;;;4.75;1.20;;;17.10;99.90;;;;;;5060455;28;20214;-75
2023/10/04 07:22:29;;;;;;;3.83;1.45;;;17.10;99.90;;;;;;5080835;28;20716;-74
2023/10/04 07:24:59;;;;;;;4.30;1.73;;;17.20;99.90;;;;;;5083603;28;20233;-74
2023/10/04 07:27:24;;;;;;;3.13;1.58;;;17.00;99.90;;;;;;5067237;28;20186;-74
2023/10/04 07:29:50;;;;;;;3.63;1.55;;;16.80;99.90;;;;;;5083598;28;20566;-75
2023/10/04 07:32:16;;;;;;;9.02;2.85;;;16.90;99.90;;;;;;5078801;28;20309;-75
2023/10/04 07:34:42;;;;;;;8.15;1.98;;;17.40;99.90;;;;;;5078850;28;20219;-74
2023/10/04 07:37:08;;;;;;;4.43;1.70;;;17.50;99.90;;;;;;5082349;28;20214;-75
2023/10/04 07:39:35;;;;;;;2.70;1.20;;;17.40;99.90;;;;;;5058973;28;20213;-74
2023/10/04 07:42:02;;;;;;;7.53;1.75;;;17.80;99.90;;;;;;5054515;28;20180;-75
2023/10/04 07:44:30;;;;;;;5.35;1.63;;;17.90;99.90;;;;;;5076970;28;20265;-74
2023/10/04 07:46:59;;;;;;;3.33;1.40;;;17.90;99.90;;;;;;5079430;28;20214;-73
2023/10/04 07:49:26;;;;;;;2.35;1.27;;;18.00;99.90;;;;;;5080313;28;20226;-74
2023/10/04 07:51:52;;;;;;;5.10;1.95;;;18.00;99.90;;;;;;5093325;23;20225;-74
2023/10/04 07:54:19;;;;;;;3.40;1.38;;;18.00;99.90;;;;;;5066388;28;20171;-74
2023/10/04 07:56:45;;;;;;;3.35;1.70;;;18.30;99.90;;;;;;5056305;28;20168;-73
2023/10/04 07:59:11;;;;;;;3.92;1.30;;;18.70;99.90;;;;;;5057122;28;20203;-72
2023/10/04 08:01:39;;;;;;;3.70;1.52;;;19.00;99.90;;;;;;5050296;28;20332;-73
2023/10/04 08:04:07;;;;;;;3.90;1.70;;;19.30;99.90;;;;;;5053320;28;20203;-72
2023/10/04 08:06:35;;;;;;;4.68;1.80;;;19.00;99.90;;;;;;5067986;28;20206;-74
2023/10/04 08:09:01;;;;;;;3.78;1.60;;;18.70;99.90;;;;;;5070646;28;20233;-73
2023/10/04 08:11:27;;;;;;;2.60;1.40;;;19.00;99.90;;;;;;5069317;28;20638;-71
2023/10/04 08:13:53;;;;;;;4.45;1.35;;;19.10;99.90;;;;;;5069823;28;20750;-72
2023/10/04 08:16:19;;;;;;;4.53;1.70;;;19.40;99.90;;;;;;5062862;28;20206;-73
2023/10/04 08:18:44;;;;;;;6.07;1.52;;;19.80;99.90;;;;;;5053889;28;20214;-73
2023/10/04 08:21:10;;;;;;;3.72;1.50;;;19.50;99.90;;;;;;5071692;28;20199;-73
2023/10/04 08:23:35;;;;;;;3.00;1.50;;;19.30;99.90;;;;;;5070642;28;20693;-72
2023/10/04 08:26:02;;;;;;;2.75;1.42;;;19.20;99.90;;;;;;5070862;28;20215;-73
2023/10/04 08:28:28;;;;;;;3.72;1.30;;;19.20;99.90;;;;;;5053172;28;20213;-71
2023/10/04 08:30:54;;;;;;;3.22;1.20;;;19.00;99.90;;;;;;5070398;28;20211;-73
2023/10/04 08:33:20;;;;;;;4.03;1.67;;;18.50;99.90;;;;;;5050765;28;20237;-73
2023/10/04 08:35:46;;;;;;;4.05;1.70;;;18.30;99.90;;;;;;5069410;28;20533;-73
2023/10/04 08:38:12;;;;;;;3.72;1.52;;;18.20;99.90;;;;;;5069302;28;20237;-74
2023/10/04 08:40:38;;;;;;;3.95;1.60;;;18.00;99.90;;;;;;5068481;28;20238;-73
2023/10/04 08:43:05;;;;;;;6.20;1.63;;;18.00;99.90;;;;;;5051919;28;20207;-73
2023/10/04 08:45:34;;;;;;;2.50;1.25;;;17.90;99.90;;;;;;5064938;28;20689;-72
2023/10/04 08:48:00;;;;;;;3.58;1.60;;;18.10;99.90;;;;;;5071258;28;20537;-72
2023/10/04 08:50:39;;;;;;;4.22;1.50;;;17.90;99.90;;;;;;5052264;28;20207;-73
2023/10/04 08:53:26;;;;;;;6.78;1.85;;;17.70;99.90;;;;;;5068242;28;20282;-72
2023/10/04 08:55:59;;;;;;;3.00;1.42;;;17.90;99.90;;;;;;5069946;28;20203;-72
2023/10/04 08:58:26;;;;;;;4.10;1.65;;;18.00;99.90;;;;;;5068262;28;20202;-74
2023/10/04 09:00:51;;;;;;;2.67;1.33;;;18.10;99.90;;;;;;5067117;28;20238;-74
2023/10/04 09:03:21;;;;;;;5.45;1.77;;;17.90;99.90;;;;;;5071652;28;20646;-73
2023/10/04 09:05:50;;;;;;;2.55;1.50;;;17.70;99.90;;;;;;5048967;28;20731;-73
2023/10/04 09:08:16;;;;;;;4.25;1.83;;;17.70;99.90;;;;;;5069588;28;20207;-73
2023/10/04 09:10:43;;;;;;;4.10;1.55;;;17.70;99.90;;;;;;5069246;28;20202;-73
2023/10/04 09:13:09;;;;;;;4.55;1.45;;;17.60;99.90;;;;;;5052337;28;20618;-72
2023/10/04 09:15:36;;;;;;;4.15;1.50;;;17.60;99.90;;;;;;5069567;28;20201;-72
2023/10/04 09:18:04;;;;;;;4.82;1.65;;;17.40;99.90;;;;;;5052965;28;20175;-72
2023/10/04 09:20:30;;;;;;;2.65;1.35;;;17.40;99.90;;;;;;5069986;28;20238;-73
2023/10/04 09:22:57;;;;;;;4.63;1.50;;;17.50;99.90;;;;;;5069596;28;20233;-71
2023/10/04 09:25:22;;;;;;;3.15;1.50;;;17.60;99.90;;;;;;5050978;28;20211;-73
2023/10/04 09:27:55;;;;;;;5.28;1.45;;;17.50;99.90;;;;;;5067085;28;20226;-73
2023/10/04 09:30:24;;;;;;;6.65;1.60;;;17.50;99.90;;;;;;5050780;28;20214;-73
2023/10/04 09:32:51;;;;;;;5.72;1.83;;;17.50;99.90;;;;;;5050014;28;20175;-72
2023/10/04 09:35:20;;;;;;;3.85;1.75;;;17.10;99.90;;;;;;5068867;28;20211;-73
2023/10/04 09:37:49;;;;;;;9.65;1.83;;;17.20;99.90;;;;;;5050807;28;20226;-73
2023/10/04 09:40:17;;;;;;;4.80;1.27;;;17.20;99.90;;;;;;5051474;28;20704;-73
2023/10/04 09:42:53;;;;;;;4.40;1.70;;;17.40;99.90;;;;;;5068282;28;20210;-72
2023/10/04 09:45:26;;;;;;;4.22;1.83;;;17.80;99.90;;;;;;5065840;28;20340;-73
2023/10/04 09:47:55;;;;;;;5.15;1.55;;;18.10;99.90;;;;;;5069311;28;20162;-73
2023/10/04 09:50:24;;;;;;;4.10;1.45;;;18.20;99.90;;;;;;5072653;28;20736;-73
2023/10/04 09:52:51;;;;;;;3.10;1.42;;;18.40;99.90;;;;;;5073858;28;20198;-72
2023/10/04 09:55:17;;;;;;;3.92;1.67;;;18.40;99.90;;;;;;5055726;28;20669;-72
2023/10/04 09:57:43;;;;;;;4.82;1.83;;;18.30;99.90;;;;;;5058015;28;20210;-73
2023/10/04 10:00:17;;;;;;;3.03;1.50;;;18.30;99.90;;;;;;5052784;28;20175;-73
2023/10/04 10:02:48;;;;;;;4.22;1.45;;;18.50;99.90;;;;;;5072631;28;20306;-73
2023/10/04 10:05:26;;;;;;;4.43;1.40;;;18.70;99.90;;;;;;5071765;28;20561;-74
2023/10/04 10:07:53;;;;;;;5.90;1.33;;;18.50;99.90;;;;;;5053853;28;20202;-74
2023/10/04 10:10:21;;;;;;;3.42;1.30;;;18.30;99.90;;;;;;5072768;28;20211;-74
2023/10/04 10:12:51;;;;;;;4.10;1.60;;;18.20;99.90;;;;;;5073104;28;20207;-73
2023/10/04 10:15:21;;;;;;;2.55;1.40;;;18.30;99.90;;;;;;5070454;28;20179;-73
2023/10/04 10:17:47;;;;;;;3.85;1.50;;;18.20;99.90;;;;;;5055011;28;20345;-73
2023/10/04 10:20:15;;;;;;;3.45;1.38;;;18.30;99.90;;;;;;5073158;28;20784;-73
2023/10/04 10:22:59;;;;;;;5.95;1.88;;;18.40;99.90;;;;;;5055337;28;20215;-72
2023/10/04 10:25:33;;;;;;;2.80;1.42;;;18.30;99.90;;;;;;5067502;28;20248;-73
2023/10/04 10:28:04;;;;;;;3.17;1.30;;;18.30;99.90;;;;;;5053651;28;20778;-73
2023/10/04 10:30:33;;;;;;;3.47;1.90;;;18.00;99.90;;;;;;5071201;28;20199;-73
2023/10/04 10:32:59;;;;;;;22.35;2.08;;;17.90;99.90;;;;;;5071739;28;20214;-72
2023/10/04 10:35:56;;;;;;;4.25;1.67;;;17.60;99.90;;;;;;5073829;28;20233;-74
2023/10/04 10:38:28;;;;;;;4.30;1.48;;;17.30;99.90;;;;;;5071266;28;20195;-73
2023/10/04 10:40:54;;;;;;;5.05;1.80;;;17.00;99.90;;;;;;5054402;28;20218;-73
2023/10/04 10:43:20;;;;;;;4.70;1.73;;;16.80;99.90;;;;;;5072551;28;20199;-73
2023/10/04 10:45:46;;;;;;;4.25;2.20;;;16.80;99.90;;;;;;5069288;28;20214;-72
2023/10/04 10:48:12;;;;;;;2.13;1.05;;;16.80;99.90;;;;;;5070833;28;20688;-73
2023/10/04 10:50:41;;;;;;;4.20;1.80;;;17.00;99.90;;;;;;5070992;28;20211;-74
2023/10/04 10:53:10;;;;;;;3.15;1.45;;;17.20;99.90;;;;;;5071386;28;20215;-73
2023/10/04 10:55:38;;;;;;;3.80;1.40;;;17.30;99.90;;;;;;5072081;28;20270;-72
2023/10/04 10:58:04;;;;;;;5.60;1.58;;;17.50;99.90;;;;;;5073225;28;20209;-73
2023/10/04 11:00:33;;;;;;;4.50;2.00;;;17.80;99.90;;;;;;5055633;28;20199;-73
2023/10/04 11:03:00;;;;;;;3.22;1.48;;;18.00;99.90;;;;;;5054999;28;20178;-72
2023/10/04 11:05:26;;;;;;;4.30;1.38;;;18.00;99.90;;;;;;5054763;28;20222;-73
2023/10/04 11:07:54;;;;;;;5.50;2.03;;;18.00;99.90;;;;;;5054910;28;20230;-73
2023/10/04 11:10:23;;;;;;;4.95;1.30;;;18.20;99.90;;;;;;5072311;28;20215;-73
2023/10/04 11:12:51;;;;;;;4.32;1.40;;;18.20;99.90;;;;;;5069898;28;20230;-73
2023/10/04 11:15:20;;;;;;;4.70;1.60;;;18.20;99.90;;;;;;5072335;28;20179;-73
2023/10/04 11:17:46;;;;;;;4.72;1.23;;;18.30;99.90;;;;;;5070647;28;20199;-72
2023/10/04 11:20:12;;;;;;;2.67;1.33;;;18.10;99.90;;;;;;5067994;28;20600;-74
2023/10/04 11:22:40;;;;;;;4.00;1.45;;;17.80;99.90;;;;;;5053454;28;20654;-74
2023/10/04 11:25:08;;;;;;;3.45;1.60;;;17.60;99.90;;;;;;5052635;28;20214;-74
2023/10/04 11:27:40;;;;;;;4.82;1.50;;;17.40;99.90;;;;;;5068680;28;20262;-73
2023/10/04 11:30:07;;;;;;;4.13;1.73;;;17.60;99.90;;;;;;5072339;28;20175;-73
2023/10/04 11:32:33;;;;;;;4.78;2.08;;;17.90;99.90;;;;;;5072342;28;20708;-73
2023/10/04 11:35:07;;;;;;;8.63;1.92;;;18.20;99.90;;;;;;5071542;28;20207;-73
2023/10/04 11:37:38;;;;;;;5.57;1.30;;;18.30;99.90;;;;;;5053548;28;20210;-73
2023/10/04 11:40:09;;;;;;;7.43;1.83;;;18.50;99.90;;;;;;5071029;28;20207;-73
2023/10/04 11:42:35;;;;;;;3.83;1.60;;;18.70;99.90;;;;;;5070707;28;20179;-73
2023/10/04 11:45:01;;;;;;;7.18;1.83;;;18.60;99.90;;;;;;5071132;28;20203;-73
2023/10/04 11:47:31;;;;;;;4.13;1.60;;;18.80;99.90;;;;;;5053866;28;20792;-74
2023/10/04 11:49:59;;;;;;;2.97;1.70;;;18.90;99.90;;;;;;5071319;28;20226;-73
2023/10/04 11:52:29;;;;;;;3.50;1.70;;;18.60;99.90;;;;;;5071976;28;20756;-74
2023/10/04 11:54:55;;;;;;;3.55;1.98;;;18.30;99.90;;;;;;5071654;28;20269;-72
2023/10/04 11:57:29;;;;;;;4.50;1.80;;;18.10;99.90;;;;;;5072110;28;20633;-74
2023/10/04 11:59:59;;;;;;;6.35;1.85;;;18.00;99.90;;;;;;5054214;28;20556;-72
2023/10/04 12:02:25;;;;;;;7.25;1.70;;;17.90;99.90;;;;;;5071573;28;20257;-74
2023/10/04 12:04:52;;;;;;;4.93;1.83;;;17.90;99.90;;;;;;5068460;28;20218;-73
2023/10/04 12:07:18;;;;;;;5.80;1.55;;;17.80;99.90;;;;;;5070760;28;20254;-73
2023/10/04 12:09:44;;;;;;;3.75;1.40;;;17.70;99.90;;;;;;5070056;28;20210;-74
2023/10/04 12:12:16;;;;;;;3.42;1.90;;;17.70;99.90;;;;;;5068210;28;20191;-72
2023/10/04 12:14:42;;;;;;;4.10;2.50;;;17.70;99.90;;;;;;5052133;28;20207;-73
2023/10/04 12:17:08;;;;;;;6.07;1.60;;;17.70;99.90;;;;;;5050469;28;20680;-73
2023/10/04 12:19:35;;;;;;;4.22;1.60;;;17.70;99.90;;;;;;5064633;28;20245;-73
2023/10/04 12:22:08;;;;;;;6.70;1.55;;;17.80;99.90;;;;;;5068415;28;20219;-73
2023/10/04 12:24:44;;;;;;;2.47;1.20;;;18.00;99.90;;;;;;5052461;28;20203;-74
2023/10/04 12:27:15;;;;;;;3.58;1.48;;;18.10;99.90;;;;;;5070396;28;20188;-73
2023/10/04 12:29:40;;;;;;;3.47;1.50;;;18.10;99.90;;;;;;5070245;28;20285;-73
2023/10/04 12:32:09;;;;;;;6.18;1.95;;;17.90;99.90;;;;;;5070682;28;20302;-74
2023/10/04 12:34:35;;;;;;;4.53;1.67;;;17.90;99.90;;;;;;5070774;28;20207;-73
2023/10/04 12:37:00;;;;;;;4.10;1.98;;;18.10;99.90;;;;;;5070693;28;20218;-73
2023/10/04 12:39:26;;;;;;;6.05;1.50;;;18.20;99.90;;;;;;5069594;28;20668;-73
2023/10/04 12:41:55;;;;;;;3.78;1.90;;;18.20;99.90;;;;;;5049630;28;20308;-72
2023/10/04 12:44:21;;;;;;;8.05;2.35;;;18.30;99.90;;;;;;5051062;28;20206;-74
2023/10/04 12:46:49;;;;;;;4.45;1.85;;;18.20;99.90;;;;;;5051704;28;20210;-74
2023/10/04 12:49:15;;;;;;;2.83;1.58;;;18.40;99.90;;;;;;5051476;28;20277;-73